createdAt,value
2022-12-19T00:01:29.178Z,100728.94
2022-12-19T00:06:52.949Z,100717.50
2022-12-19T00:12:19.061Z,100728.94
2022-12-19T00:17:41.360Z,100708.75
2022-12-19T00:23:03.416Z,100700.28
2022-12-19T00:28:25.321Z,100741.75
2022-12-19T00:33:48.360Z,100740.22
2022-12-19T00:39:11.079Z,100731.97
2022-12-19T00:44:33.159Z,100735.75
2022-12-19T00:49:55.699Z,100739.09
2022-12-19T00:55:18.920Z,100746.19
2022-12-19T01:00:41.630Z,100731.84
2022-12-19T01:06:05.600Z,100754.47
2022-12-19T01:11:46.449Z,100751.63
2022-12-19T01:17:08.360Z,100776.16
2022-12-19T01:22:30.220Z,100772.25
2022-12-19T01:27:55.380Z,100772.09
2022-12-19T01:33:18.801Z,100769.69
2022-12-19T01:38:42.910Z,100760.09
2022-12-19T01:44:08.432Z,100766.19
2022-12-19T01:49:38.260Z,100784.59
2022-12-19T01:55:02.333Z,100775.66
2022-12-19T02:00:25.135Z,100772.97
2022-12-19T02:05:47.287Z,100747.41
2022-12-19T02:11:09.261Z,100754.00
2022-12-19T02:16:55.082Z,100774.63
2022-12-19T02:22:37.066Z,100766.19
2022-12-19T02:28:27.310Z,100744.75
2022-12-19T02:33:57.658Z,100750.13
2022-12-19T02:39:51.566Z,100776.09
2022-12-19T02:45:18.383Z,100761.66
2022-12-19T02:50:50.378Z,100768.72
2022-12-19T02:56:16.650Z,100770.19
2022-12-19T03:01:56.675Z,100768.44
2022-12-19T03:07:54.619Z,100776.34
2022-12-19T03:13:25.760Z,100763.59
2022-12-19T03:18:47.963Z,100762.09
2022-12-19T03:24:12.541Z,100751.63
2022-12-19T03:29:47.222Z,100771.06
2022-12-19T03:35:18.925Z,100727.94
2022-12-19T03:40:45.687Z,100768.88
2022-12-19T03:46:25.324Z,100757.53
2022-12-19T03:51:59.212Z,100770.03
2022-12-19T03:57:30.271Z,100773.13
2022-12-19T04:02:54.275Z,100766.81
2022-12-19T04:08:17.398Z,100774.94
2022-12-19T04:13:44.095Z,100757.84
2022-12-19T04:19:16.435Z,100753.13
2022-12-19T04:24:41.613Z,100740.88
2022-12-19T04:30:06.642Z,100753.97
2022-12-19T04:35:34.853Z,100736.13
2022-12-19T04:40:57.442Z,100734.00
2022-12-19T04:46:19.383Z,100744.00
2022-12-19T04:51:42.131Z,100764.16
2022-12-19T04:57:05.071Z,100764.25
2022-12-19T05:02:27.288Z,100758.53
2022-12-19T05:07:52.254Z,100753.50
2022-12-19T05:13:14.234Z,100740.75
2022-12-19T05:18:38.022Z,100776.94
2022-12-19T05:24:05.845Z,100760.22
2022-12-19T05:29:28.073Z,100769.50
2022-12-19T05:34:50.047Z,100756.44
2022-12-19T05:40:20.308Z,100748.41
2022-12-19T05:45:43.779Z,100756.72
2022-12-19T05:51:06.315Z,100757.53
2022-12-19T05:56:28.509Z,100772.81
2022-12-19T06:01:55.279Z,100742.50
2022-12-19T06:07:21.353Z,100757.53
2022-12-19T06:12:45.869Z,100756.53
2022-12-19T06:18:08.892Z,100752.19
2022-12-19T06:23:34.186Z,100750.28
2022-12-19T06:28:56.554Z,100764.22
2022-12-19T06:34:46.988Z,100752.34
2022-12-19T06:40:01.303Z,100767.34
2022-12-19T06:45:25.288Z,100725.50
2022-12-19T06:50:47.389Z,100721.00
2022-12-19T06:56:09.523Z,100720.78
2022-12-19T07:01:31.845Z,100736.47
2022-12-19T07:06:53.583Z,100724.69
2022-12-19T07:12:15.548Z,100721.69
2022-12-19T07:17:37.837Z,100724.50
2022-12-19T07:23:02.488Z,100727.38
2022-12-19T07:28:25.802Z,100725.31
2022-12-19T07:33:48.288Z,100718.47
2022-12-19T07:39:10.605Z,100730.81
2022-12-19T07:44:33.263Z,100697.94
2022-12-19T07:49:55.241Z,100703.81
2022-12-19T07:55:19.840Z,100699.69
2022-12-19T08:00:42.408Z,100690.34
2022-12-19T08:06:07.300Z,100699.56
2022-12-19T08:11:30.758Z,100713.25
2022-12-19T08:22:40.599Z,100712.81
2022-12-19T08:28:32.841Z,100709.06
2022-12-19T08:33:57.389Z,100704.69
2022-12-19T08:39:18.976Z,100699.19
2022-12-19T08:44:41.332Z,100696.44
2022-12-19T08:50:03.140Z,100692.84
2022-12-19T08:55:26.212Z,100715.06
2022-12-19T09:00:55.506Z,100700.50
2022-12-19T09:06:20.420Z,100687.84
2022-12-19T09:11:47.638Z,100693.44
2022-12-19T09:17:10.110Z,100695.97
2022-12-19T09:22:35.482Z,100628.22
2022-12-19T09:28:26.301Z,100695.88
2022-12-19T09:33:43.638Z,100678.50
2022-12-19T09:39:06.133Z,100668.97
2022-12-19T09:44:55.012Z,100653.81
2022-12-19T09:50:33.812Z,100638.81
2022-12-19T09:55:59.342Z,100650.16
2022-12-19T10:01:31.540Z,100661.56
2022-12-19T10:07:18.209Z,100634.66
2022-12-19T10:12:58.357Z,100638.72
2022-12-19T10:18:56.695Z,100634.09
2022-12-19T10:25:08.033Z,100643.22
2022-12-19T10:30:37.652Z,100627.22
2022-12-19T10:36:12.508Z,100609.69
2022-12-19T10:41:40.753Z,100613.28
2022-12-19T10:47:06.051Z,100628.19
2022-12-19T10:52:52.926Z,100620.31
2022-12-19T10:58:37.526Z,100621.78
2022-12-19T11:04:32.313Z,100629.13
2022-12-19T11:11:16.174Z,100594.44
2022-12-19T11:19:45.213Z,100593.50
2022-12-19T11:27:04.231Z,100601.72
2022-12-19T11:30:36.951Z,100597.91
2022-12-19T11:33:25.782Z,100594.63
2022-12-19T11:38:55.844Z,100589.59
2022-12-19T11:44:30.006Z,100604.25
2022-12-19T11:50:02.403Z,100612.34
2022-12-19T11:55:40.275Z,100604.19
2022-12-19T12:01:20.947Z,100605.50
2022-12-19T12:06:53.455Z,100595.84
2022-12-19T12:19:09.405Z,100603.88
2022-12-19T12:31:22.595Z,100599.78
2022-12-19T12:31:39.618Z,100597.66
2022-12-19T12:31:41.879Z,100590.06
2022-12-19T12:42:19.844Z,100601.03
2022-12-19T12:47:42.645Z,100605.25
2022-12-19T12:53:10.226Z,100609.84
2022-12-19T12:58:54.181Z,100625.25
2022-12-19T13:04:16.534Z,100622.47
2022-12-19T13:09:39.224Z,100628.25
2022-12-19T13:15:22.674Z,100617.66
2022-12-19T13:20:48.793Z,100595.34
2022-12-19T13:26:47.483Z,100579.81
2022-12-19T13:32:14.667Z,100576.09
2022-12-19T13:39:48.681Z,100612.97
2022-12-19T13:43:46.839Z,100600.03
2022-12-19T13:49:34.840Z,100600.19
2022-12-19T13:54:59.862Z,100577.91
2022-12-19T14:00:32.836Z,100586.16
2022-12-19T14:06:16.421Z,100566.16
2022-12-19T14:12:49.534Z,100581.72
2022-12-19T14:17:26.216Z,100578.81
2022-12-19T14:22:48.754Z,100571.28
2022-12-19T14:28:29.442Z,100594.25
2022-12-19T14:39:37.124Z,100600.94
2022-12-19T14:53:34.352Z,100579.47
2022-12-19T14:54:26.182Z,100600.13
2022-12-19T14:56:47.188Z,100567.88
2022-12-19T15:02:07.251Z,100600.28
2022-12-19T15:07:32.478Z,100603.06
2022-12-19T15:14:53.928Z,100603.72
2022-12-19T15:18:59.825Z,100585.72
2022-12-19T15:24:26.785Z,100607.34
2022-12-19T15:29:48.984Z,100580.09
2022-12-19T15:35:16.859Z,100577.47
2022-12-19T15:40:43.486Z,100572.88
2022-12-19T15:46:06.099Z,100566.66
2022-12-19T15:51:29.163Z,100597.44
2022-12-19T15:56:59.301Z,100594.16
2022-12-19T16:02:25.362Z,100561.19
2022-12-19T16:07:47.813Z,100579.97
2022-12-19T16:13:24.363Z,100580.50
2022-12-19T16:18:48.596Z,100583.41
2022-12-19T16:30:09.387Z,100585.06
2022-12-19T16:41:26.149Z,100589.22
2022-12-19T16:46:51.364Z,100589.47
2022-12-19T16:52:13.862Z,100578.91
2022-12-19T16:57:36.199Z,100583.72
2022-12-19T17:03:08.037Z,100577.38
2022-12-19T17:08:30.485Z,100584.66
2022-12-19T17:14:01.030Z,100600.41
2022-12-19T17:19:39.428Z,100612.81
2022-12-19T17:25:01.946Z,100603.19
2022-12-19T17:30:24.336Z,100610.19
2022-12-19T17:35:47.681Z,100604.50
2022-12-19T17:41:20.026Z,100615.72
2022-12-19T17:46:42.577Z,100602.94
2022-12-19T17:52:06.232Z,100610.09
2022-12-19T17:57:28.003Z,100605.09
2022-12-19T18:02:51.572Z,100633.91
2022-12-19T18:08:36.341Z,100627.00
2022-12-19T18:13:58.644Z,100622.91
2022-12-19T18:19:26.420Z,100632.38
2022-12-19T18:24:49.075Z,100608.75
2022-12-19T18:30:17.120Z,100635.34
2022-12-19T18:35:42.754Z,100612.13
2022-12-19T18:41:07.700Z,100633.09
2022-12-19T18:46:34.081Z,100614.94
2022-12-19T18:51:56.114Z,100623.75
2022-12-19T18:57:18.429Z,100645.09
2022-12-19T19:02:46.460Z,100621.81
2022-12-19T19:08:22.885Z,100655.44
2022-12-19T19:13:57.247Z,100640.00
2022-12-19T19:19:20.220Z,100661.25
2022-12-19T19:24:42.120Z,100671.97
2022-12-19T19:30:05.373Z,100658.16
2022-12-19T19:35:27.777Z,100668.22
2022-12-19T19:40:49.452Z,100664.25
2022-12-19T19:46:11.925Z,100665.16
2022-12-19T19:51:34.165Z,100671.59
2022-12-19T19:56:55.789Z,100682.03
2022-12-19T20:02:18.497Z,100689.84
2022-12-19T20:07:40.434Z,100687.66
2022-12-19T20:13:02.360Z,100684.44
2022-12-19T20:18:24.366Z,100681.66
2022-12-19T20:23:46.652Z,100684.34
2022-12-19T20:29:09.034Z,100686.25
2022-12-19T20:34:31.232Z,100693.41
2022-12-19T20:39:53.403Z,100704.50
2022-12-19T20:45:15.242Z,100706.94
2022-12-19T20:50:43.068Z,100715.34
2022-12-19T20:56:06.837Z,100720.09
2022-12-19T21:01:28.646Z,100701.94
2022-12-19T21:06:51.433Z,100730.53
2022-12-19T21:12:13.764Z,100709.13
2022-12-19T21:17:35.747Z,100714.88
2022-12-19T21:23:06.922Z,100729.50
2022-12-19T21:28:30.452Z,100729.69
2022-12-19T21:33:56.401Z,100725.81
2022-12-19T21:39:18.364Z,100735.53
2022-12-19T21:44:40.317Z,100732.66
2022-12-19T21:50:02.501Z,100745.03
2022-12-19T21:55:24.940Z,100741.22
2022-12-19T22:00:48.062Z,100747.84
2022-12-19T22:06:17.982Z,100766.00
2022-12-19T22:11:43.815Z,100740.66
2022-12-19T22:17:06.291Z,100750.47
2022-12-19T22:22:28.320Z,100762.75
2022-12-19T22:27:50.390Z,100757.41
2022-12-19T22:33:13.523Z,100757.34
2022-12-19T22:38:35.625Z,100775.31
2022-12-19T22:43:57.688Z,100775.69
2022-12-19T22:49:19.895Z,100770.34
2022-12-19T22:54:42.388Z,100780.53
2022-12-19T23:00:10.389Z,100786.53
2022-12-19T23:05:32.466Z,100795.47
2022-12-19T23:10:54.777Z,100784.00
2022-12-19T23:16:17.636Z,100789.81
2022-12-19T23:21:39.629Z,100799.56
2022-12-19T23:27:02.397Z,100769.84
2022-12-19T23:32:28.548Z,100782.13
2022-12-19T23:37:51.675Z,100772.47
2022-12-19T23:43:14.569Z,100787.41
2022-12-19T23:48:38.375Z,100792.78
2022-12-19T23:54:01.018Z,100770.03
2022-12-19T23:59:23.643Z,100781.13
